Time;durP1;ratioP1;P1;durP2;ratioP2;P2;SDS_P1;SDS_P2;PMS_P1;PMS_P2;Temp;Humidity;BMP_temperature;BMP_pressure;BME280_temperature;BME280_humidity;BME280_pressure;Samples;Min_cycle;Max_cycle;Signal;HPM_P1;HPM_P2
2023/03/31 00:00:19;;;;;;;13.30;6.33;;;7.60;99.90;;;;;;5019928;28;20573;-56
2023/03/31 00:02:46;;;;;;;13.50;5.53;;;7.60;99.90;;;;;;5020281;28;20195;-58
2023/03/31 00:05:16;;;;;;;10.70;4.80;;;7.60;99.90;;;;;;5021320;28;20207;-56
2023/03/31 00:07:42;;;;;;;9.80;5.50;;;7.60;99.90;;;;;;5022400;28;20819;-55
2023/03/31 00:10:09;;;;;;;12.73;6.60;;;7.60;99.90;;;;;;5020455;28;20454;-56
2023/03/31 00:12:35;;;;;;;10.93;4.97;;;7.60;99.90;;;;;;5022369;28;20434;-58
2023/03/31 00:15:01;;;;;;;12.23;5.50;;;7.60;99.90;;;;;;5018330;28;20510;-56
2023/03/31 00:17:26;;;;;;;9.10;5.20;;;7.60;99.90;;;;;;5025548;28;20289;-56
2023/03/31 00:19:52;;;;;;;13.00;5.60;;;7.60;99.90;;;;;;5022788;28;20691;-57
2023/03/31 00:22:20;;;;;;;13.03;6.17;;;7.60;99.90;;;;;;5017873;28;20188;-54
2023/03/31 00:24:47;;;;;;;8.27;5.40;;;7.60;99.90;;;;;;5019960;28;20482;-56
2023/03/31 00:27:12;;;;;;;12.83;5.97;;;7.70;99.90;;;;;;5017269;28;20501;-55
2023/03/31 00:29:40;;;;;;;8.90;5.33;;;7.60;99.90;;;;;;5018658;28;20438;-57
2023/03/31 00:32:06;;;;;;;10.93;5.90;;;7.70;99.90;;;;;;5020132;28;20807;-57
2023/03/31 00:34:33;;;;;;;8.97;5.07;;;7.70;99.90;;;;;;5022250;28;20498;-56
2023/03/31 00:37:01;;;;;;;7.13;4.93;;;7.70;99.90;;;;;;5019851;28;20446;-56
2023/03/31 00:39:32;;;;;;;11.20;5.40;;;7.70;99.90;;;;;;5020459;28;20450;-55
2023/03/31 00:41:58;;;;;;;9.53;5.80;;;7.70;99.90;;;;;;5021360;28;20434;-57
2023/03/31 00:44:24;;;;;;;10.10;4.90;;;7.70;99.90;;;;;;5023411;28;21155;-54
2023/03/31 00:46:53;;;;;;;10.40;5.37;;;7.70;99.90;;;;;;5018955;28;20204;-58
2023/03/31 00:49:41;;;;;;;9.70;5.10;;;7.70;99.90;;;;;;5023491;28;20449;-58
2023/03/31 00:52:37;;;;;;;10.33;5.07;;;7.70;99.90;;;;;;5022133;28;20430;-60
2023/03/31 00:55:15;;;;;;;6.97;5.20;;;7.70;99.90;;;;;;5021616;28;20517;-56
2023/03/31 00:57:42;;;;;;;8.00;4.60;;;7.70;99.90;;;;;;5021890;28;20455;-56
2023/03/31 01:00:17;;;;;;;14.33;5.20;;;7.70;99.90;;;;;;5019443;28;20423;-55
2023/03/31 01:02:56;;;;;;;6.20;4.90;;;7.70;99.90;;;;;;5022580;28;20426;-57
2023/03/31 01:05:30;;;;;;;8.00;4.63;;;7.70;99.90;;;;;;5021454;28;20972;-55
2023/03/31 01:07:58;;;;;;;11.97;4.90;;;7.70;99.90;;;;;;5021521;28;20474;-56
2023/03/31 01:10:24;;;;;;;6.77;4.47;;;7.70;99.90;;;;;;5020288;28;20455;-54
2023/03/31 01:12:53;;;;;;;11.37;5.27;;;7.80;99.90;;;;;;5019652;28;20461;-56
2023/03/31 01:15:19;;;;;;;7.77;5.20;;;7.80;99.90;;;;;;5020738;28;20471;-57
2023/03/31 01:17:46;;;;;;;11.37;4.60;;;7.80;99.90;;;;;;5024801;28;20473;-56
2023/03/31 01:20:41;;;;;;;9.13;5.23;;;7.80;99.90;;;;;;5018386;28;20168;-57
2023/03/31 01:23:15;;;;;;;9.70;5.40;;;7.80;99.90;;;;;;5018880;28;20492;-57
2023/03/31 01:26:08;;;;;;;9.77;5.50;;;7.80;99.90;;;;;;5020929;28;20462;-56
2023/03/31 01:28:48;;;;;;;11.47;5.63;;;7.80;99.90;;;;;;5024090;28;20426;-57
2023/03/31 01:31:14;;;;;;;12.10;6.07;;;7.70;99.90;;;;;;5020598;28;20469;-56
2023/03/31 01:33:45;;;;;;;13.00;6.63;;;7.80;99.90;;;;;;5018960;28;20423;-55
2023/03/31 01:36:37;;;;;;;10.67;5.40;;;7.80;99.90;;;;;;5017230;28;20637;-56
2023/03/31 01:39:06;;;;;;;9.33;5.40;;;7.80;99.90;;;;;;5017496;28;20513;-57
2023/03/31 01:42:13;;;;;;;14.93;6.00;;;7.80;99.90;;;;;;5016672;28;20430;-55
2023/03/31 01:44:52;;;;;;;14.83;4.50;;;7.90;99.90;;;;;;5017186;28;20991;-56
2023/03/31 01:47:39;;;;;;;14.07;5.07;;;7.90;99.90;;;;;;5018343;28;20971;-58
2023/03/31 01:50:10;;;;;;;15.90;6.33;;;7.90;99.90;;;;;;5019004;28;20425;-55
2023/03/31 01:53:07;;;;;;;13.10;4.77;;;7.90;99.90;;;;;;5015997;28;20427;-56
2023/03/31 01:55:35;;;;;;;16.20;5.83;;;8.00;99.90;;;;;;5017261;28;20931;-56
2023/03/31 01:58:19;;;;;;;8.40;5.07;;;8.00;99.90;;;;;;5018739;28;21079;-58
2023/03/31 02:00:55;;;;;;;10.47;5.63;;;8.00;99.90;;;;;;5019003;28;20419;-57
2023/03/31 02:03:25;;;;;;;14.77;5.93;;;7.90;99.90;;;;;;5020611;28;20431;-57
2023/03/31 02:05:55;;;;;;;14.13;5.33;;;7.90;99.90;;;;;;5018969;28;20481;-55
2023/03/31 02:08:39;;;;;;;12.80;5.63;;;7.90;99.90;;;;;;5022203;28;20420;-54
2023/03/31 02:11:05;;;;;;;12.43;5.10;;;7.90;99.90;;;;;;5016079;28;20483;-57
2023/03/31 02:13:33;;;;;;;13.23;6.50;;;7.80;99.90;;;;;;5016838;28;20943;-56
2023/03/31 02:16:04;;;;;;;16.27;6.37;;;7.80;99.90;;;;;;5020515;28;20825;-57
2023/03/31 02:18:32;;;;;;;6.87;5.17;;;7.80;99.90;;;;;;5023137;28;20458;-57
2023/03/31 02:20:59;;;;;;;6.93;4.67;;;7.70;99.90;;;;;;5021341;28;20514;-56
2023/03/31 02:23:30;;;;;;;9.73;5.60;;;7.70;99.90;;;;;;5020984;28;20532;-56
2023/03/31 02:26:02;;;;;;;7.30;5.03;;;7.70;99.90;;;;;;5016390;28;20506;-56
2023/03/31 02:28:28;;;;;;;8.23;5.37;;;7.70;99.90;;;;;;5022696;28;20660;-56
2023/03/31 02:30:54;;;;;;;10.37;5.97;;;7.70;99.90;;;;;;5019884;28;20469;-57
2023/03/31 02:33:20;;;;;;;12.03;6.67;;;7.70;99.90;;;;;;5017279;28;20859;-57
2023/03/31 02:35:45;;;;;;;8.80;6.07;;;7.70;99.90;;;;;;5020075;28;20260;-55
2023/03/31 02:38:11;;;;;;;14.93;6.73;;;7.70;99.90;;;;;;5020035;28;20184;-56
2023/03/31 02:40:37;;;;;;;12.37;6.27;;;7.60;99.90;;;;;;5020304;28;20183;-57
2023/03/31 02:43:02;;;;;;;12.17;6.33;;;7.60;99.90;;;;;;5019038;28;20172;-56
2023/03/31 02:45:50;;;;;;;11.67;6.23;;;7.60;99.90;;;;;;5017248;28;20262;-56
2023/03/31 02:48:18;;;;;;;11.20;6.70;;;7.60;99.90;;;;;;5019658;28;20315;-56
2023/03/31 02:50:58;;;;;;;15.30;6.60;;;7.60;99.90;;;;;;5021045;28;20411;-56
2023/03/31 02:53:45;;;;;;;12.20;6.53;;;7.60;99.90;;;;;;5020640;28;20783;-55
2023/03/31 02:56:32;;;;;;;10.33;6.07;;;7.60;99.90;;;;;;5020815;28;20469;-56
2023/03/31 02:59:18;;;;;;;14.03;6.63;;;7.60;99.90;;;;;;5025226;28;20426;-58
2023/03/31 03:02:02;;;;;;;18.80;10.40;;;7.50;99.90;;;;;;5018746;28;20514;-59
2023/03/31 03:04:33;;;;;;;26.97;12.20;;;7.50;99.90;;;;;;5029612;28;20449;-57
2023/03/31 03:07:45;;;;;;;27.93;13.13;;;7.50;99.90;;;;;;5025831;28;20509;-57
2023/03/31 03:10:22;;;;;;;19.43;9.37;;;7.50;99.90;;;;;;5021710;28;20507;-55
2023/03/31 03:12:53;;;;;;;33.63;10.93;;;7.50;99.90;;;;;;5024686;28;21045;-55
2023/03/31 03:15:36;;;;;;;17.80;10.13;;;7.40;99.90;;;;;;5025252;28;20461;-56
2023/03/31 03:18:04;;;;;;;12.00;7.33;;;7.40;99.90;;;;;;5026703;28;20498;-56
2023/03/31 03:20:32;;;;;;;14.37;6.30;;;7.40;99.90;;;;;;5024953;28;20473;-56
2023/03/31 03:22:58;;;;;;;11.83;6.80;;;7.40;99.90;;;;;;5027290;28;20487;-56
2023/03/31 03:25:25;;;;;;;13.37;7.40;;;7.30;99.90;;;;;;5023525;28;20462;-57
2023/03/31 03:27:52;;;;;;;13.53;7.10;;;7.30;99.90;;;;;;5023483;28;20271;-57
2023/03/31 03:30:17;;;;;;;12.03;6.53;;;7.30;99.90;;;;;;5028479;28;20414;-56
2023/03/31 03:32:43;;;;;;;11.10;6.23;;;7.20;99.90;;;;;;5026842;28;20496;-57
2023/03/31 03:35:09;;;;;;;13.40;6.43;;;7.20;99.90;;;;;;5026802;28;20171;-57
2023/03/31 03:37:35;;;;;;;20.30;6.77;;;7.20;99.90;;;;;;5022544;28;20963;-57
2023/03/31 03:40:01;;;;;;;12.37;6.97;;;7.10;99.90;;;;;;5019284;28;20431;-57
2023/03/31 03:42:27;;;;;;;10.20;7.20;;;7.10;99.90;;;;;;5025117;28;20483;-56
2023/03/31 03:44:52;;;;;;;11.57;7.23;;;7.10;99.90;;;;;;5023845;28;20196;-55
2023/03/31 03:47:18;;;;;;;9.53;6.37;;;7.10;99.90;;;;;;5022873;28;20576;-58
2023/03/31 03:49:43;;;;;;;10.60;7.20;;;7.00;99.90;;;;;;5025896;28;20200;-57
2023/03/31 03:52:09;;;;;;;9.73;6.83;;;7.00;99.90;;;;;;5025833;28;20176;-56
2023/03/31 03:54:35;;;;;;;15.80;7.30;;;7.00;99.90;;;;;;5020598;28;20261;-55
2023/03/31 03:57:01;;;;;;;10.20;6.87;;;7.00;99.90;;;;;;5010127;28;20356;-56
2023/03/31 03:59:26;;;;;;;10.83;5.80;;;6.90;99.90;;;;;;5022347;28;20526;-56
2023/03/31 04:01:52;;;;;;;10.20;7.00;;;6.90;99.90;;;;;;5023790;28;20487;-56
2023/03/31 04:04:20;;;;;;;15.70;7.70;;;6.90;99.90;;;;;;5023509;28;20202;-54
2023/03/31 04:06:46;;;;;;;10.23;6.40;;;6.90;99.90;;;;;;5012491;28;20676;-56
2023/03/31 04:09:11;;;;;;;10.23;7.57;;;6.90;99.90;;;;;;5016519;28;20431;-56
2023/03/31 04:11:37;;;;;;;20.10;10.67;;;7.00;99.90;;;;;;5018675;28;20191;-57
2023/03/31 04:14:03;;;;;;;16.73;10.67;;;7.00;99.90;;;;;;5013593;28;20190;-58
2023/03/31 04:16:29;;;;;;;18.13;9.43;;;7.00;99.90;;;;;;5021641;28;20700;-58
2023/03/31 04:18:58;;;;;;;12.80;8.87;;;7.00;99.90;;;;;;5017995;28;20195;-56
2023/03/31 04:21:24;;;;;;;16.23;8.80;;;7.10;99.90;;;;;;5009808;28;20438;-59
2023/03/31 04:23:57;;;;;;;16.00;9.80;;;7.10;99.90;;;;;;5015290;28;20442;-57
2023/03/31 04:26:37;;;;;;;15.67;9.17;;;7.10;99.90;;;;;;5006583;28;20474;-60
2023/03/31 04:29:06;;;;;;;13.10;8.23;;;7.10;99.90;;;;;;5019665;28;20439;-59
2023/03/31 04:31:32;;;;;;;18.03;7.67;;;7.10;99.90;;;;;;5023658;28;20435;-56
2023/03/31 04:34:05;;;;;;;20.03;8.40;;;7.10;99.90;;;;;;5017806;28;20457;-56
2023/03/31 04:36:32;;;;;;;17.03;7.93;;;7.10;99.90;;;;;;5014254;28;20458;-56
2023/03/31 04:38:58;;;;;;;24.63;9.20;;;7.10;99.90;;;;;;5019355;28;20465;-59
2023/03/31 04:41:26;;;;;;;18.10;9.00;;;7.10;99.90;;;;;;5006884;28;20822;-60
2023/03/31 04:43:52;;;;;;;22.93;9.20;;;7.10;99.90;;;;;;5006953;28;20442;-58
2023/03/31 04:46:19;;;;;;;20.20;9.63;;;7.10;99.90;;;;;;5016403;28;20974;-56
2023/03/31 04:48:45;;;;;;;18.60;9.43;;;7.10;99.90;;;;;;5019809;28;20490;-56
2023/03/31 04:51:14;;;;;;;20.80;9.60;;;7.10;99.90;;;;;;5026369;28;20536;-59
2023/03/31 04:53:39;;;;;;;15.93;10.20;;;7.10;99.90;;;;;;5016881;28;20176;-58
2023/03/31 04:56:06;;;;;;;20.10;9.90;;;7.00;99.90;;;;;;5021369;28;20485;-61
2023/03/31 04:58:32;;;;;;;13.30;9.73;;;7.00;99.90;;;;;;5028614;28;20250;-57
2023/03/31 05:00:58;;;;;;;17.00;7.90;;;7.00;99.90;;;;;;5010686;28;20427;-56
2023/03/31 05:03:24;;;;;;;16.27;8.80;;;7.00;99.90;;;;;;5026218;28;20437;-56
2023/03/31 05:05:49;;;;;;;14.70;8.10;;;7.10;99.90;;;;;;5020175;28;20207;-58
2023/03/31 05:08:15;;;;;;;17.97;8.70;;;7.10;99.90;;;;;;5029998;28;21460;-57
2023/03/31 05:10:41;;;;;;;18.40;8.97;;;7.10;99.90;;;;;;5026939;28;20184;-57
2023/03/31 05:13:09;;;;;;;11.50;8.50;;;7.20;99.90;;;;;;5025723;28;20188;-56
2023/03/31 05:15:38;;;;;;;15.60;9.00;;;7.20;99.90;;;;;;5021141;28;20196;-58
2023/03/31 05:18:03;;;;;;;16.70;7.30;;;7.20;99.90;;;;;;5017967;28;20434;-57
2023/03/31 05:20:29;;;;;;;12.70;8.20;;;7.20;99.90;;;;;;5018065;28;20955;-57
2023/03/31 05:22:55;;;;;;;11.57;8.00;;;7.30;99.90;;;;;;5014538;28;20249;-57
2023/03/31 05:25:21;;;;;;;13.73;6.33;;;7.30;99.90;;;;;;5022512;28;20200;-56
2023/03/31 05:27:48;;;;;;;9.17;6.00;;;7.30;99.90;;;;;;5019877;28;20333;-56
2023/03/31 05:30:14;;;;;;;11.77;6.50;;;7.20;99.90;;;;;;5017113;28;20781;-57
2023/03/31 05:32:40;;;;;;;13.67;7.43;;;7.20;99.90;;;;;;5017249;28;20436;-57
2023/03/31 05:35:06;;;;;;;13.13;6.63;;;7.20;99.90;;;;;;5015754;28;20443;-58
2023/03/31 05:37:32;;;;;;;13.70;6.60;;;7.20;99.90;;;;;;5020476;28;20541;-53
2023/03/31 05:39:58;;;;;;;16.30;7.83;;;7.20;99.90;;;;;;5008946;28;20495;-58
2023/03/31 05:42:23;;;;;;;9.60;7.30;;;7.20;99.90;;;;;;5006458;28;20202;-56
2023/03/31 05:44:49;;;;;;;15.70;7.60;;;7.30;99.90;;;;;;5020701;28;20218;-58
2023/03/31 05:47:15;;;;;;;16.30;8.43;;;7.30;99.90;;;;;;5018194;28;20271;-56
2023/03/31 05:49:41;;;;;;;18.53;8.47;;;7.30;99.90;;;;;;5019645;28;20435;-56
2023/03/31 05:52:09;;;;;;;14.87;7.70;;;7.40;99.90;;;;;;5021337;28;20922;-57
2023/03/31 05:54:35;;;;;;;19.73;10.13;;;7.40;99.90;;;;;;5026955;28;20230;-57
2023/03/31 05:57:00;;;;;;;14.20;8.63;;;7.40;99.90;;;;;;5027859;28;20438;-57
2023/03/31 05:59:26;;;;;;;15.23;7.60;;;7.40;99.90;;;;;;5024686;28;20649;-57
2023/03/31 06:01:52;;;;;;;16.90;7.80;;;7.40;99.90;;;;;;5021531;28;20190;-57
2023/03/31 06:04:18;;;;;;;13.00;7.97;;;7.40;99.90;;;;;;5017375;28;20195;-57
2023/03/31 06:06:45;;;;;;;12.73;7.23;;;7.40;99.90;;;;;;5019745;28;20497;-56
2023/03/31 06:09:13;;;;;;;13.10;8.20;;;7.40;99.90;;;;;;5021800;28;20314;-57
2023/03/31 06:11:39;;;;;;;13.20;7.93;;;7.40;99.90;;;;;;5024769;28;20434;-50
2023/03/31 06:14:05;;;;;;;14.73;8.33;;;7.40;99.90;;;;;;5027355;28;20965;-52
2023/03/31 06:16:30;;;;;;;13.80;8.17;;;7.40;99.90;;;;;;5020460;28;20294;-54
2023/03/31 06:18:56;;;;;;;11.90;8.40;;;7.40;99.90;;;;;;5024291;28;20254;-54
2023/03/31 06:21:22;;;;;;;19.33;10.50;;;7.40;99.90;;;;;;5016068;28;20180;-54
2023/03/31 06:23:48;;;;;;;12.97;8.77;;;7.50;99.90;;;;;;5017080;28;20207;-56
2023/03/31 06:26:17;;;;;;;16.70;8.70;;;7.50;99.90;;;;;;5015135;28;20208;-55
2023/03/31 06:28:44;;;;;;;11.23;7.20;;;7.50;99.90;;;;;;5018677;28;20489;-55
2023/03/31 06:31:18;;;;;;;11.70;7.47;;;7.60;99.90;;;;;;5012607;28;20430;-54
2023/03/31 06:33:44;;;;;;;11.40;7.97;;;7.60;99.90;;;;;;5016236;28;20940;-55
2023/03/31 06:36:12;;;;;;;13.13;8.50;;;7.60;99.90;;;;;;5015321;28;20834;-53
2023/03/31 06:38:38;;;;;;;13.00;7.80;;;7.70;99.90;;;;;;5014282;28;20481;-56
2023/03/31 06:41:05;;;;;;;11.20;8.00;;;7.70;99.90;;;;;;5021400;28;20450;-53
2023/03/31 06:43:31;;;;;;;19.23;9.10;;;7.70;99.90;;;;;;5014829;28;20183;-54
2023/03/31 06:45:57;;;;;;;15.33;9.90;;;7.70;99.90;;;;;;5015992;28;20535;-54
2023/03/31 06:48:23;;;;;;;13.37;9.53;;;7.80;99.90;;;;;;5018573;28;20178;-57
2023/03/31 06:50:49;;;;;;;20.60;9.40;;;7.80;99.90;;;;;;5014703;28;20183;-54
2023/03/31 06:53:15;;;;;;;11.13;7.97;;;7.90;99.90;;;;;;5016003;28;20427;-54
2023/03/31 06:55:40;;;;;;;16.87;7.80;;;8.00;99.90;;;;;;5015018;28;20681;-54
2023/03/31 06:58:06;;;;;;;13.07;6.97;;;8.10;99.90;;;;;;5017006;28;20229;-54
2023/03/31 07:00:33;;;;;;;11.77;6.13;;;8.20;99.90;;;;;;5016359;28;20225;-55
2023/03/31 07:02:58;;;;;;;8.83;4.07;;;8.40;99.90;;;;;;5015460;28;20183;-55
2023/03/31 07:05:27;;;;;;;5.43;2.70;;;8.60;99.90;;;;;;5024838;28;20450;-55
2023/03/31 07:07:57;;;;;;;8.07;2.43;;;8.80;99.90;;;;;;5027553;28;20215;-54
2023/03/31 07:10:25;;;;;;;4.30;2.20;;;8.90;99.90;;;;;;5025172;28;20495;-55
2023/03/31 07:12:50;;;;;;;5.13;1.90;;;8.90;99.90;;;;;;5025555;28;20469;-53
2023/03/31 07:15:16;;;;;;;1.80;1.70;;;8.90;99.90;;;;;;5022297;28;20458;-56
2023/03/31 07:17:42;;;;;;;2.03;1.33;;;8.80;99.90;;;;;;5025418;28;20223;-55
2023/03/31 07:20:16;;;;;;;1.40;1.30;;;8.80;99.90;;;;;;5028367;28;20414;-56
2023/03/31 07:22:43;;;;;;;2.80;1.50;;;8.80;99.90;;;;;;5026038;28;20195;-54
2023/03/31 07:25:11;;;;;;;1.30;1.20;;;8.70;99.90;;;;;;5027707;28;20485;-55
2023/03/31 07:27:37;;;;;;;1.20;1.20;;;8.70;99.90;;;;;;5023757;28;20442;-56
2023/03/31 07:30:08;;;;;;;1.43;1.33;;;8.60;99.90;;;;;;5024866;28;20426;-54
2023/03/31 07:32:38;;;;;;;2.30;1.53;;;8.50;99.90;;;;;;5017540;28;20459;-54
2023/03/31 07:35:04;;;;;;;1.87;1.20;;;8.50;99.90;;;;;;5025159;28;20484;-54
2023/03/31 07:37:44;;;;;;;1.50;1.40;;;8.50;99.90;;;;;;5026886;28;20426;-55
2023/03/31 07:40:14;;;;;;;4.63;1.53;;;8.50;99.90;;;;;;5026228;28;20517;-55
2023/03/31 07:42:40;;;;;;;1.37;1.23;;;8.40;99.90;;;;;;5028464;28;20512;-55
2023/03/31 07:45:07;;;;;;;1.23;1.13;;;8.40;99.90;;;;;;5030086;28;20994;-55
2023/03/31 07:47:33;;;;;;;1.63;1.53;;;8.40;99.90;;;;;;5024674;28;20453;-56
2023/03/31 07:49:59;;;;;;;1.47;1.37;;;8.50;99.90;;;;;;5025541;28;20430;-54
2023/03/31 07:52:24;;;;;;;1.90;1.73;;;8.50;99.90;;;;;;5029635;28;20187;-56
2023/03/31 07:54:50;;;;;;;2.07;1.50;;;8.70;99.90;;;;;;5028979;28;20214;-55
2023/03/31 07:57:18;;;;;;;6.23;1.57;;;8.80;99.90;;;;;;5029213;28;20199;-55
2023/03/31 07:59:46;;;;;;;1.50;1.33;;;8.90;99.90;;;;;;5023140;28;20633;-57
2023/03/31 08:02:14;;;;;;;3.90;1.63;;;9.00;99.90;;;;;;5029740;28;20513;-55
2023/03/31 08:04:43;;;;;;;1.80;1.30;;;9.20;99.90;;;;;;5030552;28;20430;-56
2023/03/31 08:07:13;;;;;;;4.47;1.67;;;9.30;99.90;;;;;;5020939;28;20462;-56
2023/03/31 08:09:39;;;;;;;4.83;1.80;;;9.50;99.90;;;;;;5028555;28;20434;-55
2023/03/31 08:12:05;;;;;;;4.30;1.77;;;9.60;99.90;;;;;;5015036;28;20442;-55
2023/03/31 08:14:32;;;;;;;2.13;1.70;;;9.70;99.90;;;;;;5025623;28;20431;-55
2023/03/31 08:16:59;;;;;;;1.70;1.40;;;9.80;99.90;;;;;;5026172;28;20200;-54
2023/03/31 08:19:25;;;;;;;3.10;1.53;;;9.80;99.90;;;;;;5029045;28;20431;-56
2023/03/31 08:21:51;;;;;;;6.03;1.90;;;9.80;99.90;;;;;;5027781;28;20438;-54
2023/03/31 08:24:17;;;;;;;7.83;1.90;;;9.90;99.90;;;;;;5027658;28;20780;-54
2023/03/31 08:26:43;;;;;;;3.63;1.90;;;10.00;99.90;;;;;;5022635;28;20207;-56
2023/03/31 08:29:09;;;;;;;7.20;2.07;;;10.10;99.90;;;;;;5024388;28;20439;-56
2023/03/31 08:31:34;;;;;;;8.43;2.00;;;10.20;99.90;;;;;;5028614;28;20176;-56
2023/03/31 08:34:01;;;;;;;3.10;1.87;;;10.40;99.90;;;;;;5028624;28;20175;-54
2023/03/31 08:36:27;;;;;;;3.47;2.00;;;10.50;99.90;;;;;;5025954;28;20283;-56
2023/03/31 08:38:53;;;;;;;2.33;2.10;;;10.70;99.90;;;;;;5025728;28;20442;-54
2023/03/31 08:41:59;;;;;;;5.70;2.10;;;10.80;99.90;;;;;;5019230;28;20443;-56
2023/03/31 08:44:25;;;;;;;4.93;2.20;;;11.00;99.90;;;;;;5022816;28;20537;-56
2023/03/31 08:46:52;;;;;;;3.07;1.90;;;11.10;99.90;;;;;;5025348;28;20485;-53
2023/03/31 08:49:20;;;;;;;4.60;2.20;;;11.20;99.90;;;;;;5021241;28;20184;-55
2023/03/31 08:51:59;;;;;;;3.60;1.60;;;11.20;99.90;;;;;;5028254;28;20441;-55
2023/03/31 08:54:37;;;;;;;5.70;1.80;;;11.30;99.90;;;;;;5017440;28;20435;-54
2023/03/31 08:57:05;;;;;;;3.00;2.13;;;11.60;99.50;;;;;;5025453;28;20994;-55
2023/03/31 08:59:36;;;;;;;4.27;1.73;;;11.80;99.90;;;;;;5029730;28;20503;-56
2023/03/31 09:02:28;;;;;;;7.17;1.93;;;12.00;99.90;;;;;;5015772;28;20426;-56
2023/03/31 09:04:59;;;;;;;3.00;1.70;;;12.20;95.80;;;;;;5022817;28;20618;-57
2023/03/31 09:07:49;;;;;;;11.10;2.00;;;12.30;93.90;;;;;;5027469;28;20458;-54
2023/03/31 09:10:29;;;;;;;2.13;1.47;;;12.50;86.70;;;;;;5025799;28;20426;-54
2023/03/31 09:12:58;;;;;;;4.80;2.27;;;12.60;88.50;;;;;;5025129;28;20437;-55
2023/03/31 09:15:46;;;;;;;30.53;2.27;;;12.70;82.80;;;;;;5025359;28;20438;-52
2023/03/31 09:18:30;;;;;;;3.50;1.70;;;12.90;90.40;;;;;;5027951;28;20445;-53
2023/03/31 09:21:32;;;;;;;5.73;1.80;;;13.00;80.30;;;;;;5027115;28;20430;-55
2023/03/31 09:24:16;;;;;;;1.77;1.47;;;13.00;68.20;;;;;;5021792;28;20513;-54
2023/03/31 09:26:59;;;;;;;4.40;2.23;;;12.90;70.10;;;;;;5019971;28;20462;-56
2023/03/31 09:29:30;;;;;;;4.00;1.40;;;12.70;68.50;;;;;;5024967;28;20464;-55
2023/03/31 09:32:05;;;;;;;4.43;1.60;;;12.70;66.60;;;;;;5027095;28;20423;-54
2023/03/31 09:34:33;;;;;;;6.43;1.60;;;12.50;64.30;;;;;;5025930;28;20931;-55
2023/03/31 09:36:59;;;;;;;3.43;1.37;;;12.40;63.10;;;;;;5019025;28;20438;-54
2023/03/31 09:39:25;;;;;;;3.47;1.77;;;12.40;60.90;;;;;;5029348;28;20449;-54
2023/03/31 09:41:55;;;;;;;3.13;1.73;;;12.50;62.10;;;;;;5029061;28;20193;-54
2023/03/31 09:44:29;;;;;;;4.07;1.50;;;12.70;61.60;;;;;;5028279;28;20488;-54
2023/03/31 09:46:56;;;;;;;10.53;1.50;;;12.80;61.00;;;;;;5021060;28;20476;-57
2023/03/31 09:49:27;;;;;;;5.07;1.63;;;12.90;60.70;;;;;;5028862;28;20418;-54
2023/03/31 09:52:11;;;;;;;4.13;1.60;;;13.10;60.40;;;;;;5021402;28;20431;-55
2023/03/31 09:54:45;;;;;;;3.60;1.50;;;13.10;59.00;;;;;;5011376;28;20445;-56
2023/03/31 09:57:34;;;;;;;2.87;1.60;;;13.00;60.00;;;;;;5016317;28;21836;-53
2023/03/31 10:00:12;;;;;;;5.27;1.50;;;12.90;57.90;;;;;;5022758;28;20538;-56
2023/03/31 10:02:56;;;;;;;5.73;1.73;;;12.80;56.20;;;;;;5022824;28;20434;-55
2023/03/31 10:05:37;;;;;;;5.00;2.00;;;12.70;55.80;;;;;;5021024;28;20461;-55
2023/03/31 10:08:29;;;;;;;3.23;1.33;;;12.60;56.30;;;;;;5022483;28;20433;-55
2023/03/31 10:11:06;;;;;;;8.23;3.33;;;12.60;55.00;;;;;;5026666;28;20430;-54
2023/03/31 10:13:45;;;;;;;5.30;2.13;;;12.60;55.70;;;;;;5020532;28;20492;-55
2023/03/31 10:16:42;;;;;;;2.60;1.97;;;12.90;57.00;;;;;;5019305;28;20776;-55
2023/03/31 10:19:23;;;;;;;9.77;1.70;;;13.20;54.10;;;;;;5030048;28;20454;-54
2023/03/31 10:22:00;;;;;;;3.07;1.40;;;13.50;55.00;;;;;;5028593;28;20459;-56
2023/03/31 10:24:39;;;;;;;2.83;1.23;;;13.80;54.60;;;;;;5025360;28;20454;-54
2023/03/31 10:27:12;;;;;;;3.50;1.70;;;14.00;53.40;;;;;;5021905;28;20963;-55
2023/03/31 10:29:38;;;;;;;4.17;1.70;;;14.20;51.80;;;;;;5025030;28;20489;-56
2023/03/31 10:32:14;;;;;;;3.90;1.70;;;14.40;52.00;;;;;;5015986;28;20462;-54
2023/03/31 10:34:41;;;;;;;5.50;2.13;;;14.40;51.10;;;;;;5016473;28;20532;-57
2023/03/31 10:37:12;;;;;;;3.57;1.60;;;14.50;50.90;;;;;;5015043;28;20469;-56
2023/03/31 10:39:38;;;;;;;5.87;1.50;;;14.50;49.80;;;;;;5017271;28;20437;-55
2023/03/31 10:42:04;;;;;;;5.87;1.20;;;14.50;48.30;;;;;;5020389;28;20423;-56
2023/03/31 10:44:36;;;;;;;5.23;1.50;;;14.50;48.60;;;;;;5020972;28;20572;-53
2023/03/31 10:47:20;;;;;;;3.23;1.50;;;14.50;48.20;;;;;;5023096;28;20203;-56
2023/03/31 10:49:50;;;;;;;5.60;1.70;;;14.60;48.10;;;;;;5023065;28;20429;-56
2023/03/31 10:52:21;;;;;;;4.70;2.83;;;14.70;49.80;;;;;;5024899;28;20507;-56
2023/03/31 10:54:50;;;;;;;4.87;1.97;;;14.80;47.10;;;;;;5015091;28;20415;-56
2023/03/31 10:57:17;;;;;;;5.40;1.63;;;14.80;47.40;;;;;;5014420;28;20512;-55
2023/03/31 11:00:00;;;;;;;3.63;1.53;;;14.80;46.80;;;;;;5015786;28;20495;-53
2023/03/31 11:02:51;;;;;;;6.90;1.80;;;14.90;45.80;;;;;;5011614;28;20836;-50
2023/03/31 11:05:48;;;;;;;4.93;1.60;;;14.90;46.60;;;;;;5011977;28;20479;-58
2023/03/31 11:08:52;;;;;;;4.40;1.27;;;15.00;46.40;;;;;;5018042;28;20430;-54
2023/03/31 11:11:32;;;;;;;4.27;1.60;;;15.00;44.70;;;;;;5041931;28;20476;-54
2023/03/31 11:14:15;;;;;;;2.90;1.60;;;15.00;45.60;;;;;;5032539;28;20465;-56
2023/03/31 11:16:57;;;;;;;9.03;2.10;;;15.10;46.10;;;;;;5019362;28;20507;-55
2023/03/31 11:19:29;;;;;;;4.53;1.73;;;15.30;46.30;;;;;;5024158;28;20541;-56
2023/03/31 11:22:11;;;;;;;3.33;1.60;;;15.40;45.70;;;;;;5020000;28;20434;-55
2023/03/31 11:25:09;;;;;;;3.33;1.50;;;15.40;44.90;;;;;;5029164;28;20429;-54
2023/03/31 11:28:01;;;;;;;3.93;1.33;;;15.20;44.80;;;;;;5031477;28;20545;-54
2023/03/31 11:30:47;;;;;;;2.03;1.10;;;15.00;46.80;;;;;;5028775;28;20427;-55
2023/03/31 11:33:34;;;;;;;2.43;1.10;;;15.10;47.50;;;;;;5016736;28;20441;-56
2023/03/31 11:36:09;;;;;;;4.07;1.10;;;15.30;46.70;;;;;;5018451;28;20454;-57
2023/03/31 11:38:46;;;;;;;2.03;1.00;;;15.50;48.00;;;;;;5022126;28;20438;-55
2023/03/31 11:41:21;;;;;;;2.27;1.40;;;15.50;46.60;;;;;;5016484;28;20438;-58
2023/03/31 11:43:59;;;;;;;4.80;1.40;;;15.20;46.00;;;;;;5022640;28;20426;-54
2023/03/31 11:46:51;;;;;;;5.23;1.57;;;14.70;46.60;;;;;;5023488;28;20458;-58
2023/03/31 11:49:22;;;;;;;3.30;1.37;;;14.30;48.30;;;;;;5022284;28;20967;-57
2023/03/31 11:52:05;;;;;;;4.37;1.50;;;13.80;50.70;;;;;;5027679;28;20520;-55
2023/03/31 11:54:55;;;;;;;4.90;1.50;;;13.50;54.40;;;;;;5029817;28;20437;-56
2023/03/31 11:57:29;;;;;;;3.53;1.37;;;13.60;55.10;;;;;;5028506;28;20445;-54
2023/03/31 12:00:12;;;;;;;2.27;1.30;;;13.70;55.10;;;;;;5027661;28;21674;-54
2023/03/31 12:03:11;;;;;;;6.97;1.80;;;14.00;57.80;;;;;;5021568;28;20423;-56
2023/03/31 12:05:44;;;;;;;8.83;2.10;;;14.30;57.70;;;;;;5025143;28;20458;-56
2023/03/31 12:08:33;;;;;;;4.60;1.50;;;14.40;55.00;;;;;;5018020;28;20430;-53
2023/03/31 12:11:15;;;;;;;4.87;1.50;;;14.20;55.40;;;;;;5027808;28;20784;-56
2023/03/31 12:13:50;;;;;;;6.07;1.47;;;13.90;52.10;;;;;;5029908;28;20429;-55
2023/03/31 12:16:42;;;;;;;3.43;1.63;;;13.60;52.50;;;;;;5024166;28;20493;-57
2023/03/31 12:19:27;;;;;;;7.63;1.90;;;13.30;53.60;;;;;;5021451;28;20562;-56
2023/03/31 12:22:06;;;;;;;6.00;1.80;;;13.20;54.00;;;;;;5013288;28;20423;-55
2023/03/31 12:24:33;;;;;;;7.70;1.50;;;13.00;54.10;;;;;;5014411;28;20500;-55
2023/03/31 12:27:37;;;;;;;3.90;1.80;;;12.90;55.10;;;;;;5017937;28;20501;-56
2023/03/31 12:30:11;;;;;;;3.53;1.47;;;12.70;56.60;;;;;;5024550;28;20934;-54
2023/03/31 12:32:45;;;;;;;3.57;1.60;;;12.70;57.90;;;;;;5019220;28;20477;-55
2023/03/31 12:35:40;;;;;;;7.57;1.53;;;12.60;55.50;;;;;;5019977;28;20521;-55
2023/03/31 12:38:25;;;;;;;4.53;1.23;;;12.40;55.50;;;;;;5021437;28;20783;-55
2023/03/31 12:41:03;;;;;;;4.80;1.63;;;12.30;54.60;;;;;;5019953;28;20438;-55
2023/03/31 12:43:34;;;;;;;4.43;1.27;;;12.10;54.70;;;;;;5030883;28;20456;-53
2023/03/31 12:46:08;;;;;;;4.53;1.37;;;11.90;54.60;;;;;;5023687;28;20497;-54
2023/03/31 12:48:37;;;;;;;4.50;1.40;;;11.80;56.20;;;;;;5030033;28;20413;-55
2023/03/31 12:51:15;;;;;;;4.70;1.53;;;11.70;55.50;;;;;;5025570;28;20546;-55
2023/03/31 12:53:56;;;;;;;2.90;1.50;;;11.60;53.90;;;;;;5037781;28;20933;-55
2023/03/31 12:56:21;;;;;;;11.30;1.67;;;11.50;53.20;;;;;;5026225;28;20426;-54
2023/03/31 12:58:47;;;;;;;1.57;1.30;;;11.50;52.80;;;;;;5028050;28;20484;-57
2023/03/31 13:01:20;;;;;;;2.73;1.90;;;11.50;53.40;;;;;;5025761;28;20637;-54
2023/03/31 13:03:53;;;;;;;4.87;2.00;;;11.60;54.00;;;;;;5026215;28;20649;-55
2023/03/31 13:06:25;;;;;;;5.37;1.37;;;12.10;55.50;;;;;;5025830;28;20477;-56
2023/03/31 13:08:52;;;;;;;3.40;1.70;;;12.90;53.50;;;;;;5035962;28;20418;-54
2023/03/31 13:11:37;;;;;;;2.37;1.23;;;13.50;51.20;;;;;;5030157;28;20794;-54
2023/03/31 13:14:12;;;;;;;2.07;1.20;;;14.20;50.60;;;;;;5025875;28;20436;-56